sensor_id;sensor_type;location;lat;lon;timestamp;P1;durP1;ratioP1;P2;durP2;ratioP2
59302;SDS011;45074;52.764;6.896;2022-08-23T00:00:39;10.82;;;6.63;;
59302;SDS011;45074;52.764;6.896;2022-08-23T00:03:05;11.30;;;6.47;;
59302;SDS011;45074;52.764;6.896;2022-08-23T00:05:31;11.90;;;6.30;;
59302;SDS011;45074;52.764;6.896;2022-08-23T00:07:57;10.07;;;6.28;;
59302;SDS011;45074;52.764;6.896;2022-08-23T00:10:23;11.15;;;6.60;;
59302;SDS011;45074;52.764;6.896;2022-08-23T00:12:48;10.65;;;6.75;;
59302;SDS011;45074;52.764;6.896;2022-08-23T00:15:15;12.57;;;6.47;;
59302;SDS011;45074;52.764;6.896;2022-08-23T00:17:42;12.45;;;6.43;;
59302;SDS011;45074;52.764;6.896;2022-08-23T00:20:09;11.30;;;6.38;;
59302;SDS011;45074;52.764;6.896;2022-08-23T00:22:37;10.68;;;6.82;;
59302;SDS011;45074;52.764;6.896;2022-08-23T00:25:04;11.45;;;7.15;;
59302;SDS011;45074;52.764;6.896;2022-08-23T00:27:32;11.70;;;6.90;;
59302;SDS011;45074;52.764;6.896;2022-08-23T00:29:58;13.60;;;6.88;;
59302;SDS011;45074;52.764;6.896;2022-08-23T00:32:28;11.23;;;7.18;;
59302;SDS011;45074;52.764;6.896;2022-08-23T00:34:56;11.35;;;6.75;;
59302;SDS011;45074;52.764;6.896;2022-08-23T00:37:23;12.77;;;7.15;;
59302;SDS011;45074;52.764;6.896;2022-08-23T00:39:49;11.18;;;7.43;;
59302;SDS011;45074;52.764;6.896;2022-08-23T00:42:23;11.25;;;7.40;;
59302;SDS011;45074;52.764;6.896;2022-08-23T00:48:15;13.30;;;7.45;;
59302;SDS011;45074;52.764;6.896;2022-08-23T00:53:27;13.35;;;7.38;;
59302;SDS011;45074;52.764;6.896;2022-08-23T00:55:57;12.23;;;7.88;;
59302;SDS011;45074;52.764;6.896;2022-08-23T00:58:24;12.15;;;8.05;;
59302;SDS011;45074;52.764;6.896;2022-08-23T01:00:51;12.15;;;7.72;;
59302;SDS011;45074;52.764;6.896;2022-08-23T01:03:19;12.05;;;8.55;;
59302;SDS011;45074;52.764;6.896;2022-08-23T01:08:21;10.73;;;8.07;;
59302;SDS011;45074;52.764;6.896;2022-08-23T01:10:52;12.52;;;8.32;;
59302;SDS011;45074;52.764;6.896;2022-08-23T01:13:26;12.10;;;7.75;;
59302;SDS011;45074;52.764;6.896;2022-08-23T01:16:02;12.00;;;8.68;;
59302;SDS011;45074;52.764;6.896;2022-08-23T01:18:34;14.73;;;8.63;;
59302;SDS011;45074;52.764;6.896;2022-08-23T01:21:12;12.82;;;8.20;;
59302;SDS011;45074;52.764;6.896;2022-08-23T01:23:50;14.80;;;9.13;;
59302;SDS011;45074;52.764;6.896;2022-08-23T01:26:20;15.23;;;9.20;;
59302;SDS011;45074;52.764;6.896;2022-08-23T01:28:47;14.10;;;9.50;;
59302;SDS011;45074;52.764;6.896;2022-08-23T01:31:14;13.68;;;9.70;;
59302;SDS011;45074;52.764;6.896;2022-08-23T01:33:41;13.02;;;9.57;;
59302;SDS011;45074;52.764;6.896;2022-08-23T01:36:14;14.43;;;10.27;;
59302;SDS011;45074;52.764;6.896;2022-08-23T01:41:07;13.85;;;10.23;;
59302;SDS011;45074;52.764;6.896;2022-08-23T01:43:33;13.35;;;9.43;;
59302;SDS011;45074;52.764;6.896;2022-08-23T01:46:09;13.55;;;9.93;;
59302;SDS011;45074;52.764;6.896;2022-08-23T01:48:44;16.23;;;10.15;;
59302;SDS011;45074;52.764;6.896;2022-08-23T01:51:12;15.18;;;10.52;;
59302;SDS011;45074;52.764;6.896;2022-08-23T01:53:40;14.45;;;10.77;;
59302;SDS011;45074;52.764;6.896;2022-08-23T01:56:06;14.75;;;10.93;;
59302;SDS011;45074;52.764;6.896;2022-08-23T01:58:32;14.43;;;10.85;;
59302;SDS011;45074;52.764;6.896;2022-08-23T02:00:59;18.33;;;11.85;;
59302;SDS011;45074;52.764;6.896;2022-08-23T02:03:25;16.20;;;11.30;;
59302;SDS011;45074;52.764;6.896;2022-08-23T02:05:52;17.92;;;11.77;;
59302;SDS011;45074;52.764;6.896;2022-08-23T02:08:18;17.15;;;11.88;;
59302;SDS011;45074;52.764;6.896;2022-08-23T02:11:06;16.73;;;12.07;;
59302;SDS011;45074;52.764;6.896;2022-08-23T02:13:33;15.20;;;12.43;;
59302;SDS011;45074;52.764;6.896;2022-08-23T02:15:58;16.77;;;11.63;;
59302;SDS011;45074;52.764;6.896;2022-08-23T02:18:24;17.60;;;12.18;;
59302;SDS011;45074;52.764;6.896;2022-08-23T02:20:51;15.50;;;12.75;;
59302;SDS011;45074;52.764;6.896;2022-08-23T02:23:17;17.95;;;12.60;;
59302;SDS011;45074;52.764;6.896;2022-08-23T02:25:44;15.85;;;13.05;;
59302;SDS011;45074;52.764;6.896;2022-08-23T02:28:10;15.18;;;12.05;;
59302;SDS011;45074;52.764;6.896;2022-08-23T02:30:36;15.77;;;12.15;;
59302;SDS011;45074;52.764;6.896;2022-08-23T02:33:02;14.00;;;11.98;;
59302;SDS011;45074;52.764;6.896;2022-08-23T02:35:28;21.33;;;12.73;;
59302;SDS011;45074;52.764;6.896;2022-08-23T02:37:53;15.68;;;11.82;;
59302;SDS011;45074;52.764;6.896;2022-08-23T02:40:19;17.33;;;12.50;;
59302;SDS011;45074;52.764;6.896;2022-08-23T02:42:46;16.20;;;12.45;;
59302;SDS011;45074;52.764;6.896;2022-08-23T02:45:12;15.88;;;12.05;;
59302;SDS011;45074;52.764;6.896;2022-08-23T02:47:37;15.75;;;12.30;;
59302;SDS011;45074;52.764;6.896;2022-08-23T02:50:04;15.60;;;12.25;;
59302;SDS011;45074;52.764;6.896;2022-08-23T02:52:31;15.40;;;11.98;;
59302;SDS011;45074;52.764;6.896;2022-08-23T02:54:57;18.13;;;13.00;;
59302;SDS011;45074;52.764;6.896;2022-08-23T02:57:24;17.55;;;12.98;;
59302;SDS011;45074;52.764;6.896;2022-08-23T02:59:50;19.30;;;13.02;;
59302;SDS011;45074;52.764;6.896;2022-08-23T03:02:16;15.98;;;12.90;;
59302;SDS011;45074;52.764;6.896;2022-08-23T03:04:42;16.88;;;13.63;;
59302;SDS011;45074;52.764;6.896;2022-08-23T03:07:08;16.73;;;12.88;;
59302;SDS011;45074;52.764;6.896;2022-08-23T03:09:34;17.35;;;13.35;;
59302;SDS011;45074;52.764;6.896;2022-08-23T03:12:00;19.50;;;13.73;;
59302;SDS011;45074;52.764;6.896;2022-08-23T03:14:25;15.68;;;13.35;;
59302;SDS011;45074;52.764;6.896;2022-08-23T03:16:52;17.55;;;13.98;;
59302;SDS011;45074;52.764;6.896;2022-08-23T03:19:18;16.08;;;13.27;;
59302;SDS011;45074;52.764;6.896;2022-08-23T03:21:44;16.58;;;13.57;;
59302;SDS011;45074;52.764;6.896;2022-08-23T03:24:10;17.30;;;13.65;;
59302;SDS011;45074;52.764;6.896;2022-08-23T03:26:36;17.75;;;13.43;;
59302;SDS011;45074;52.764;6.896;2022-08-23T03:29:02;16.20;;;14.18;;
59302;SDS011;45074;52.764;6.896;2022-08-23T03:31:28;17.25;;;13.65;;
59302;SDS011;45074;52.764;6.896;2022-08-23T03:33:53;18.48;;;14.30;;
59302;SDS011;45074;52.764;6.896;2022-08-23T03:36:38;16.55;;;13.65;;
59302;SDS011;45074;52.764;6.896;2022-08-23T03:39:04;16.52;;;14.18;;
59302;SDS011;45074;52.764;6.896;2022-08-23T03:41:30;19.85;;;14.88;;
59302;SDS011;45074;52.764;6.896;2022-08-23T03:43:56;16.70;;;13.73;;
59302;SDS011;45074;52.764;6.896;2022-08-23T03:46:22;17.00;;;13.38;;
59302;SDS011;45074;52.764;6.896;2022-08-23T03:48:52;17.65;;;13.38;;
59302;SDS011;45074;52.764;6.896;2022-08-23T03:51:21;15.63;;;13.32;;
59302;SDS011;45074;52.764;6.896;2022-08-23T03:53:47;15.57;;;13.52;;
59302;SDS011;45074;52.764;6.896;2022-08-23T03:56:24;17.40;;;13.85;;
59302;SDS011;45074;52.764;6.896;2022-08-23T03:58:52;17.67;;;13.73;;
59302;SDS011;45074;52.764;6.896;2022-08-23T04:01:19;18.10;;;13.52;;
59302;SDS011;45074;52.764;6.896;2022-08-23T04:03:45;16.02;;;13.85;;
59302;SDS011;45074;52.764;6.896;2022-08-23T04:06:12;15.32;;;13.25;;
59302;SDS011;45074;52.764;6.896;2022-08-23T04:08:39;18.08;;;13.55;;
59302;SDS011;45074;52.764;6.896;2022-08-23T04:11:05;15.90;;;13.57;;
59302;SDS011;45074;52.764;6.896;2022-08-23T04:13:32;15.90;;;13.02;;
59302;SDS011;45074;52.764;6.896;2022-08-23T04:15:58;17.85;;;13.35;;
59302;SDS011;45074;52.764;6.896;2022-08-23T04:18:27;16.75;;;13.25;;
59302;SDS011;45074;52.764;6.896;2022-08-23T04:20:55;14.32;;;12.88;;
59302;SDS011;45074;52.764;6.896;2022-08-23T04:23:22;14.30;;;12.65;;
59302;SDS011;45074;52.764;6.896;2022-08-23T04:25:49;16.45;;;12.80;;
59302;SDS011;45074;52.764;6.896;2022-08-23T04:28:15;14.13;;;12.18;;
59302;SDS011;45074;52.764;6.896;2022-08-23T04:30:40;18.80;;;13.23;;
59302;SDS011;45074;52.764;6.896;2022-08-23T04:33:06;14.63;;;12.45;;
59302;SDS011;45074;52.764;6.896;2022-08-23T04:35:32;17.25;;;12.63;;
59302;SDS011;45074;52.764;6.896;2022-08-23T04:37:58;14.65;;;12.43;;
59302;SDS011;45074;52.764;6.896;2022-08-23T04:40:24;16.60;;;13.35;;
59302;SDS011;45074;52.764;6.896;2022-08-23T04:43:08;14.55;;;12.27;;
59302;SDS011;45074;52.764;6.896;2022-08-23T04:45:36;15.68;;;12.80;;
59302;SDS011;45074;52.764;6.896;2022-08-23T04:48:03;15.00;;;12.88;;
59302;SDS011;45074;52.764;6.896;2022-08-23T04:50:29;13.75;;;12.23;;
59302;SDS011;45074;52.764;6.896;2022-08-23T04:52:55;15.98;;;12.15;;
59302;SDS011;45074;52.764;6.896;2022-08-23T04:55:21;14.13;;;12.13;;
59302;SDS011;45074;52.764;6.896;2022-08-23T04:57:46;15.68;;;13.20;;
59302;SDS011;45074;52.764;6.896;2022-08-23T05:00:12;15.13;;;12.88;;
59302;SDS011;45074;52.764;6.896;2022-08-23T05:02:40;14.50;;;11.93;;
59302;SDS011;45074;52.764;6.896;2022-08-23T05:05:06;16.58;;;13.02;;
59302;SDS011;45074;52.764;6.896;2022-08-23T05:07:34;15.05;;;12.48;;
59302;SDS011;45074;52.764;6.896;2022-08-23T05:10:01;14.75;;;12.55;;
59302;SDS011;45074;52.764;6.896;2022-08-23T05:12:28;15.55;;;13.10;;
59302;SDS011;45074;52.764;6.896;2022-08-23T05:14:54;15.93;;;13.02;;
59302;SDS011;45074;52.764;6.896;2022-08-23T05:17:19;14.32;;;12.70;;
59302;SDS011;45074;52.764;6.896;2022-08-23T05:19:45;14.50;;;12.73;;
59302;SDS011;45074;52.764;6.896;2022-08-23T05:22:11;16.30;;;13.23;;
59302;SDS011;45074;52.764;6.896;2022-08-23T05:24:36;16.05;;;13.75;;
59302;SDS011;45074;52.764;6.896;2022-08-23T05:27:02;15.02;;;12.80;;
59302;SDS011;45074;52.764;6.896;2022-08-23T05:29:28;15.20;;;13.30;;
59302;SDS011;45074;52.764;6.896;2022-08-23T05:31:53;15.63;;;12.93;;
59302;SDS011;45074;52.764;6.896;2022-08-23T05:34:21;14.45;;;13.00;;
59302;SDS011;45074;52.764;6.896;2022-08-23T05:36:47;16.83;;;13.98;;
59302;SDS011;45074;52.764;6.896;2022-08-23T05:39:13;18.10;;;14.38;;
59302;SDS011;45074;52.764;6.896;2022-08-23T05:41:40;16.27;;;14.38;;
59302;SDS011;45074;52.764;6.896;2022-08-23T05:44:06;18.38;;;14.40;;
59302;SDS011;45074;52.764;6.896;2022-08-23T05:46:33;16.15;;;13.10;;
59302;SDS011;45074;52.764;6.896;2022-08-23T05:48:59;18.90;;;14.10;;
59302;SDS011;45074;52.764;6.896;2022-08-23T05:51:26;18.23;;;13.63;;
59302;SDS011;45074;52.764;6.896;2022-08-23T05:53:55;17.88;;;13.90;;
59302;SDS011;45074;52.764;6.896;2022-08-23T05:56:25;18.48;;;13.25;;
59302;SDS011;45074;52.764;6.896;2022-08-23T05:58:55;16.48;;;14.25;;
59302;SDS011;45074;52.764;6.896;2022-08-23T06:01:23;18.83;;;14.00;;
59302;SDS011;45074;52.764;6.896;2022-08-23T06:03:49;17.83;;;14.57;;
59302;SDS011;45074;52.764;6.896;2022-08-23T06:06:16;20.30;;;15.75;;
59302;SDS011;45074;52.764;6.896;2022-08-23T06:08:43;17.95;;;14.20;;
59302;SDS011;45074;52.764;6.896;2022-08-23T06:11:18;18.77;;;14.95;;
59302;SDS011;45074;52.764;6.896;2022-08-23T06:13:50;23.35;;;15.27;;
59302;SDS011;45074;52.764;6.896;2022-08-23T06:16:20;19.83;;;15.82;;
59302;SDS011;45074;52.764;6.896;2022-08-23T06:18:48;21.15;;;14.07;;
59302;SDS011;45074;52.764;6.896;2022-08-23T06:21:15;17.67;;;14.63;;
59302;SDS011;45074;52.764;6.896;2022-08-23T06:23:42;19.60;;;14.48;;
59302;SDS011;45074;52.764;6.896;2022-08-23T06:26:17;16.30;;;13.50;;
59302;SDS011;45074;52.764;6.896;2022-08-23T06:28:46;15.60;;;14.00;;
59302;SDS011;45074;52.764;6.896;2022-08-23T06:31:13;14.90;;;12.93;;
59302;SDS011;45074;52.764;6.896;2022-08-23T06:33:42;17.30;;;13.00;;
59302;SDS011;45074;52.764;6.896;2022-08-23T06:36:10;18.65;;;13.00;;
59302;SDS011;45074;52.764;6.896;2022-08-23T06:38:41;16.95;;;12.73;;
59302;SDS011;45074;52.764;6.896;2022-08-23T06:41:10;18.90;;;12.90;;
59302;SDS011;45074;52.764;6.896;2022-08-23T06:43:37;18.02;;;13.38;;
59302;SDS011;45074;52.764;6.896;2022-08-23T06:46:06;16.83;;;12.35;;
59302;SDS011;45074;52.764;6.896;2022-08-23T06:48:36;15.38;;;11.60;;
59302;SDS011;45074;52.764;6.896;2022-08-23T06:51:08;14.60;;;10.77;;
59302;SDS011;45074;52.764;6.896;2022-08-23T06:53:34;13.95;;;11.40;;
59302;SDS011;45074;52.764;6.896;2022-08-23T06:56:00;13.30;;;10.77;;
59302;SDS011;45074;52.764;6.896;2022-08-23T06:58:26;13.30;;;10.27;;
59302;SDS011;45074;52.764;6.896;2022-08-23T07:00:52;12.55;;;10.50;;
59302;SDS011;45074;52.764;6.896;2022-08-23T07:03:17;11.82;;;9.30;;
59302;SDS011;45074;52.764;6.896;2022-08-23T07:05:44;11.18;;;9.52;;
59302;SDS011;45074;52.764;6.896;2022-08-23T07:08:10;11.27;;;9.60;;
59302;SDS011;45074;52.764;6.896;2022-08-23T07:10:36;10.95;;;8.93;;
59302;SDS011;45074;52.764;6.896;2022-08-23T07:13:02;12.48;;;8.88;;
59302;SDS011;45074;52.764;6.896;2022-08-23T07:15:28;10.43;;;8.80;;
59302;SDS011;45074;52.764;6.896;2022-08-23T07:17:53;11.57;;;9.05;;
59302;SDS011;45074;52.764;6.896;2022-08-23T07:20:20;10.93;;;8.80;;
59302;SDS011;45074;52.764;6.896;2022-08-23T07:22:45;10.65;;;9.05;;
59302;SDS011;45074;52.764;6.896;2022-08-23T07:25:11;12.90;;;9.27;;
59302;SDS011;45074;52.764;6.896;2022-08-23T07:27:37;11.68;;;9.57;;
59302;SDS011;45074;52.764;6.896;2022-08-23T07:30:04;11.60;;;9.10;;
59302;SDS011;45074;52.764;6.896;2022-08-23T07:32:31;12.07;;;9.15;;
59302;SDS011;45074;52.764;6.896;2022-08-23T07:34:57;11.02;;;8.93;;
59302;SDS011;45074;52.764;6.896;2022-08-23T07:37:22;10.32;;;9.20;;
59302;SDS011;45074;52.764;6.896;2022-08-23T07:39:48;10.70;;;9.05;;
59302;SDS011;45074;52.764;6.896;2022-08-23T07:42:14;11.00;;;8.50;;
59302;SDS011;45074;52.764;6.896;2022-08-23T07:44:40;12.43;;;8.05;;
59302;SDS011;45074;52.764;6.896;2022-08-23T07:47:05;9.75;;;7.93;;
59302;SDS011;45074;52.764;6.896;2022-08-23T07:49:31;8.68;;;7.28;;
59302;SDS011;45074;52.764;6.896;2022-08-23T07:51:56;9.65;;;7.28;;
59302;SDS011;45074;52.764;6.896;2022-08-23T07:54:22;8.82;;;7.18;;
59302;SDS011;45074;52.764;6.896;2022-08-23T07:56:49;8.27;;;6.57;;
59302;SDS011;45074;52.764;6.896;2022-08-23T07:59:15;9.45;;;6.93;;
59302;SDS011;45074;52.764;6.896;2022-08-23T08:01:41;8.27;;;6.57;;
59302;SDS011;45074;52.764;6.896;2022-08-23T08:04:07;10.48;;;6.90;;
59302;SDS011;45074;52.764;6.896;2022-08-23T08:06:43;10.15;;;7.18;;
59302;SDS011;45074;52.764;6.896;2022-08-23T08:09:12;9.32;;;6.50;;
59302;SDS011;45074;52.764;6.896;2022-08-23T08:11:40;9.18;;;7.18;;
59302;SDS011;45074;52.764;6.896;2022-08-23T08:14:08;10.18;;;6.65;;
59302;SDS011;45074;52.764;6.896;2022-08-23T08:16:36;10.48;;;6.68;;
59302;SDS011;45074;52.764;6.896;2022-08-23T08:19:07;10.80;;;7.10;;
59302;SDS011;45074;52.764;6.896;2022-08-23T08:21:35;9.13;;;8.02;;
59302;SDS011;45074;52.764;6.896;2022-08-23T08:24:02;10.27;;;7.38;;
59302;SDS011;45074;52.764;6.896;2022-08-23T08:26:28;10.65;;;7.20;;
59302;SDS011;45074;52.764;6.896;2022-08-23T08:28:54;10.85;;;7.63;;
59302;SDS011;45074;52.764;6.896;2022-08-23T08:31:21;8.07;;;7.05;;
59302;SDS011;45074;52.764;6.896;2022-08-23T08:33:47;10.05;;;7.40;;
59302;SDS011;45074;52.764;6.896;2022-08-23T08:36:27;10.02;;;7.00;;
59302;SDS011;45074;52.764;6.896;2022-08-23T08:38:59;9.55;;;6.85;;
59302;SDS011;45074;52.764;6.896;2022-08-23T08:41:41;13.68;;;7.07;;
59302;SDS011;45074;52.764;6.896;2022-08-23T08:46:56;11.45;;;5.85;;
59302;SDS011;45074;52.764;6.896;2022-08-23T08:55:05;15.02;;;7.10;;
59302;SDS011;45074;52.764;6.896;2022-08-23T08:57:37;13.95;;;6.47;;
59302;SDS011;45074;52.764;6.896;2022-08-23T09:00:16;10.27;;;5.68;;
59302;SDS011;45074;52.764;6.896;2022-08-23T09:02:50;8.93;;;5.90;;
59302;SDS011;45074;52.764;6.896;2022-08-23T09:05:21;36.60;;;8.90;;
59302;SDS011;45074;52.764;6.896;2022-08-23T09:18:37;7.72;;;5.40;;
59302;SDS011;45074;52.764;6.896;2022-08-23T09:21:04;9.25;;;4.95;;
59302;SDS011;45074;52.764;6.896;2022-08-23T09:23:33;11.60;;;6.10;;
59302;SDS011;45074;52.764;6.896;2022-08-23T09:26:41;8.25;;;4.97;;
59302;SDS011;45074;52.764;6.896;2022-08-23T09:29:03;6.43;;;4.60;;
59302;SDS011;45074;52.764;6.896;2022-08-23T09:31:52;8.43;;;4.85;;
59302;SDS011;45074;52.764;6.896;2022-08-23T09:34:36;8.70;;;4.88;;
59302;SDS011;45074;52.764;6.896;2022-08-23T09:39:40;7.80;;;5.30;;
59302;SDS011;45074;52.764;6.896;2022-08-23T09:42:30;8.90;;;4.47;;
59302;SDS011;45074;52.764;6.896;2022-08-23T09:44:53;8.63;;;4.80;;
59302;SDS011;45074;52.764;6.896;2022-08-23T09:47:22;8.52;;;4.78;;
59302;SDS011;45074;52.764;6.896;2022-08-23T09:49:55;9.45;;;4.30;;
59302;SDS011;45074;52.764;6.896;2022-08-23T09:52:32;7.43;;;4.43;;
59302;SDS011;45074;52.764;6.896;2022-08-23T09:55:01;7.22;;;4.18;;
59302;SDS011;45074;52.764;6.896;2022-08-23T09:57:28;8.02;;;4.32;;
59302;SDS011;45074;52.764;6.896;2022-08-23T09:59:55;8.30;;;4.25;;
59302;SDS011;45074;52.764;6.896;2022-08-23T10:02:28;8.55;;;4.38;;
59302;SDS011;45074;52.764;6.896;2022-08-23T10:07:40;7.70;;;3.70;;
59302;SDS011;45074;52.764;6.896;2022-08-23T10:12:48;7.30;;;3.58;;
59302;SDS011;45074;52.764;6.896;2022-08-23T10:15:15;7.10;;;3.30;;
59302;SDS011;45074;52.764;6.896;2022-08-23T10:23:05;6.25;;;3.40;;
59302;SDS011;45074;52.764;6.896;2022-08-23T10:28:05;6.28;;;3.35;;
59302;SDS011;45074;52.764;6.896;2022-08-23T10:30:59;6.43;;;3.30;;
59302;SDS011;45074;52.764;6.896;2022-08-23T10:35:59;6.07;;;3.50;;
59302;SDS011;45074;52.764;6.896;2022-08-23T10:46:27;5.78;;;3.30;;
59302;SDS011;45074;52.764;6.896;2022-08-23T10:48:56;6.07;;;3.00;;
59302;SDS011;45074;52.764;6.896;2022-08-23T10:51:24;6.57;;;3.35;;
59302;SDS011;45074;52.764;6.896;2022-08-23T10:54:07;6.03;;;3.30;;
59302;SDS011;45074;52.764;6.896;2022-08-23T10:56:36;7.43;;;3.55;;
59302;SDS011;45074;52.764;6.896;2022-08-23T10:59:22;8.10;;;3.20;;
59302;SDS011;45074;52.764;6.896;2022-08-23T11:01:51;7.47;;;4.05;;
59302;SDS011;45074;52.764;6.896;2022-08-23T11:04:25;6.03;;;3.40;;
59302;SDS011;45074;52.764;6.896;2022-08-23T11:06:53;7.30;;;3.70;;
59302;SDS011;45074;52.764;6.896;2022-08-23T11:17:02;6.85;;;3.40;;
59302;SDS011;45074;52.764;6.896;2022-08-23T11:19:46;7.53;;;3.47;;
59302;SDS011;45074;52.764;6.896;2022-08-23T11:22:14;8.65;;;3.13;;
59302;SDS011;45074;52.764;6.896;2022-08-23T11:24:47;6.80;;;3.53;;
59302;SDS011;45074;52.764;6.896;2022-08-23T11:27:24;6.75;;;3.08;;
59302;SDS011;45074;52.764;6.896;2022-08-23T11:29:50;6.22;;;3.10;;
59302;SDS011;45074;52.764;6.896;2022-08-23T11:37:51;4.80;;;3.00;;
59302;SDS011;45074;52.764;6.896;2022-08-23T11:40:35;7.05;;;2.90;;
59302;SDS011;45074;52.764;6.896;2022-08-23T11:43:05;6.20;;;3.17;;
59302;SDS011;45074;52.764;6.896;2022-08-23T11:45:43;6.10;;;2.80;;
59302;SDS011;45074;52.764;6.896;2022-08-23T11:50:45;7.22;;;3.20;;
59302;SDS011;45074;52.764;6.896;2022-08-23T12:01:13;5.85;;;2.90;;
59302;SDS011;45074;52.764;6.896;2022-08-23T12:06:34;6.45;;;3.20;;
59302;SDS011;45074;52.764;6.896;2022-08-23T12:08:57;8.65;;;3.28;;
59302;SDS011;45074;52.764;6.896;2022-08-23T12:21:54;6.57;;;2.92;;
59302;SDS011;45074;52.764;6.896;2022-08-23T12:24:28;5.63;;;3.03;;
59302;SDS011;45074;52.764;6.896;2022-08-23T12:27:09;5.57;;;2.95;;
59302;SDS011;45074;52.764;6.896;2022-08-23T12:29:42;7.18;;;3.20;;
59302;SDS011;45074;52.764;6.896;2022-08-23T12:33:15;6.47;;;3.00;;
59302;SDS011;45074;52.764;6.896;2022-08-23T12:37:46;7.75;;;3.22;;
59302;SDS011;45074;52.764;6.896;2022-08-23T12:40:20;5.50;;;3.05;;
59302;SDS011;45074;52.764;6.896;2022-08-23T12:42:46;6.07;;;2.78;;
59302;SDS011;45074;52.764;6.896;2022-08-23T12:45:19;6.35;;;2.75;;
59302;SDS011;45074;52.764;6.896;2022-08-23T12:47:57;6.03;;;2.78;;
59302;SDS011;45074;52.764;6.896;2022-08-23T12:50:25;5.05;;;2.42;;
59302;SDS011;45074;52.764;6.896;2022-08-23T12:52:56;7.47;;;2.80;;
59302;SDS011;45074;52.764;6.896;2022-08-23T12:55:23;5.95;;;2.78;;
59302;SDS011;45074;52.764;6.896;2022-08-23T12:57:50;7.78;;;2.60;;
59302;SDS011;45074;52.764;6.896;2022-08-23T13:00:20;5.82;;;2.65;;
59302;SDS011;45074;52.764;6.896;2022-08-23T13:03:31;7.38;;;2.50;;
59302;SDS011;45074;52.764;6.896;2022-08-23T13:08:05;4.38;;;2.40;;
59302;SDS011;45074;52.764;6.896;2022-08-23T13:10:32;6.47;;;2.85;;
59302;SDS011;45074;52.764;6.896;2022-08-23T13:12:59;6.95;;;2.70;;
59302;SDS011;45074;52.764;6.896;2022-08-23T13:15:38;6.28;;;2.60;;
59302;SDS011;45074;52.764;6.896;2022-08-23T13:18:04;6.40;;;3.00;;
59302;SDS011;45074;52.764;6.896;2022-08-23T13:20:30;6.63;;;2.58;;
59302;SDS011;45074;52.764;6.896;2022-08-23T13:22:58;7.65;;;2.90;;
59302;SDS011;45074;52.764;6.896;2022-08-23T13:25:26;7.32;;;3.13;;
59302;SDS011;45074;52.764;6.896;2022-08-23T13:27:54;7.18;;;3.00;;
59302;SDS011;45074;52.764;6.896;2022-08-23T13:30:21;6.68;;;2.90;;
59302;SDS011;45074;52.764;6.896;2022-08-23T13:32:49;5.80;;;2.67;;
59302;SDS011;45074;52.764;6.896;2022-08-23T13:35:35;4.82;;;2.70;;
59302;SDS011;45074;52.764;6.896;2022-08-23T13:38:17;7.22;;;3.10;;
59302;SDS011;45074;52.764;6.896;2022-08-23T13:40:48;8.25;;;3.17;;
59302;SDS011;45074;52.764;6.896;2022-08-23T13:43:19;5.93;;;3.13;;
59302;SDS011;45074;52.764;6.896;2022-08-23T13:45:49;7.18;;;2.92;;
59302;SDS011;45074;52.764;6.896;2022-08-23T13:48:18;5.97;;;2.95;;
59302;SDS011;45074;52.764;6.896;2022-08-23T13:50:45;5.28;;;2.88;;
59302;SDS011;45074;52.764;6.896;2022-08-23T13:53:11;5.68;;;2.60;;
59302;SDS011;45074;52.764;6.896;2022-08-23T13:55:39;6.32;;;2.80;;
59302;SDS011;45074;52.764;6.896;2022-08-23T13:58:08;6.95;;;3.25;;
59302;SDS011;45074;52.764;6.896;2022-08-23T14:00:35;6.53;;;3.10;;
59302;SDS011;45074;52.764;6.896;2022-08-23T14:03:01;10.18;;;3.10;;
59302;SDS011;45074;52.764;6.896;2022-08-23T14:05:27;6.22;;;3.25;;
59302;SDS011;45074;52.764;6.896;2022-08-23T14:07:53;5.57;;;2.70;;
59302;SDS011;45074;52.764;6.896;2022-08-23T14:10:20;7.47;;;3.28;;
59302;SDS011;45074;52.764;6.896;2022-08-23T14:12:48;6.55;;;3.50;;
59302;SDS011;45074;52.764;6.896;2022-08-23T14:15:15;7.68;;;3.10;;
59302;SDS011;45074;52.764;6.896;2022-08-23T14:17:42;7.13;;;3.13;;
59302;SDS011;45074;52.764;6.896;2022-08-23T14:20:09;10.57;;;8.80;;
59302;SDS011;45074;52.764;6.896;2022-08-23T14:22:36;7.65;;;3.45;;
59302;SDS011;45074;52.764;6.896;2022-08-23T14:25:03;7.05;;;3.17;;
59302;SDS011;45074;52.764;6.896;2022-08-23T14:27:30;6.70;;;3.40;;
59302;SDS011;45074;52.764;6.896;2022-08-23T14:29:56;6.90;;;3.60;;
59302;SDS011;45074;52.764;6.896;2022-08-23T14:32:22;7.55;;;3.28;;
59302;SDS011;45074;52.764;6.896;2022-08-23T14:34:48;6.65;;;3.20;;
59302;SDS011;45074;52.764;6.896;2022-08-23T14:37:15;5.57;;;3.22;;
59302;SDS011;45074;52.764;6.896;2022-08-23T14:39:41;6.88;;;3.35;;
59302;SDS011;45074;52.764;6.896;2022-08-23T14:42:07;7.07;;;3.30;;
59302;SDS011;45074;52.764;6.896;2022-08-23T14:44:33;6.85;;;3.05;;
59302;SDS011;45074;52.764;6.896;2022-08-23T14:47:00;7.55;;;3.58;;
59302;SDS011;45074;52.764;6.896;2022-08-23T14:49:26;6.20;;;3.03;;
59302;SDS011;45074;52.764;6.896;2022-08-23T14:51:52;6.65;;;3.13;;
59302;SDS011;45074;52.764;6.896;2022-08-23T14:54:22;8.13;;;3.13;;
59302;SDS011;45074;52.764;6.896;2022-08-23T14:56:48;5.50;;;3.40;;
59302;SDS011;45074;52.764;6.896;2022-08-23T14:59:15;5.88;;;3.20;;
59302;SDS011;45074;52.764;6.896;2022-08-23T15:01:42;6.88;;;3.40;;
59302;SDS011;45074;52.764;6.896;2022-08-23T15:04:08;7.30;;;3.40;;
59302;SDS011;45074;52.764;6.896;2022-08-23T15:06:34;7.50;;;3.30;;
59302;SDS011;45074;52.764;6.896;2022-08-23T15:09:00;6.03;;;3.20;;
59302;SDS011;45074;52.764;6.896;2022-08-23T15:11:27;5.38;;;2.97;;
59302;SDS011;45074;52.764;6.896;2022-08-23T15:13:53;7.07;;;3.25;;
59302;SDS011;45074;52.764;6.896;2022-08-23T15:16:19;7.18;;;3.13;;
59302;SDS011;45074;52.764;6.896;2022-08-23T15:18:47;6.53;;;3.40;;
59302;SDS011;45074;52.764;6.896;2022-08-23T15:21:14;6.75;;;3.50;;
59302;SDS011;45074;52.764;6.896;2022-08-23T15:23:40;6.80;;;3.38;;
59302;SDS011;45074;52.764;6.896;2022-08-23T15:26:07;5.85;;;3.20;;
59302;SDS011;45074;52.764;6.896;2022-08-23T15:28:33;5.90;;;3.20;;
59302;SDS011;45074;52.764;6.896;2022-08-23T15:30:59;8.18;;;3.40;;
59302;SDS011;45074;52.764;6.896;2022-08-23T15:33:26;6.03;;;3.08;;
59302;SDS011;45074;52.764;6.896;2022-08-23T15:35:53;7.53;;;3.42;;
59302;SDS011;45074;52.764;6.896;2022-08-23T15:38:23;6.22;;;3.13;;
59302;SDS011;45074;52.764;6.896;2022-08-23T15:40:50;5.82;;;3.10;;
59302;SDS011;45074;52.764;6.896;2022-08-23T15:43:17;10.85;;;3.80;;
59302;SDS011;45074;52.764;6.896;2022-08-23T15:45:43;6.47;;;3.30;;
59302;SDS011;45074;52.764;6.896;2022-08-23T15:48:12;6.32;;;3.40;;
59302;SDS011;45074;52.764;6.896;2022-08-23T15:50:40;7.15;;;3.30;;
59302;SDS011;45074;52.764;6.896;2022-08-23T15:53:08;7.18;;;3.40;;
59302;SDS011;45074;52.764;6.896;2022-08-23T15:55:34;6.85;;;3.58;;
59302;SDS011;45074;52.764;6.896;2022-08-23T15:58:00;6.32;;;3.30;;
59302;SDS011;45074;52.764;6.896;2022-08-23T16:00:27;6.55;;;3.42;;
59302;SDS011;45074;52.764;6.896;2022-08-23T16:02:53;7.70;;;3.30;;
59302;SDS011;45074;52.764;6.896;2022-08-23T16:05:19;6.20;;;3.05;;
59302;SDS011;45074;52.764;6.896;2022-08-23T16:07:46;5.20;;;3.47;;
59302;SDS011;45074;52.764;6.896;2022-08-23T16:10:13;6.50;;;3.40;;
59302;SDS011;45074;52.764;6.896;2022-08-23T16:12:40;8.40;;;4.00;;
59302;SDS011;45074;52.764;6.896;2022-08-23T16:15:06;5.90;;;3.35;;
59302;SDS011;45074;52.764;6.896;2022-08-23T16:17:35;5.65;;;3.17;;
59302;SDS011;45074;52.764;6.896;2022-08-23T16:20:03;6.95;;;3.72;;
59302;SDS011;45074;52.764;6.896;2022-08-23T16:22:29;6.20;;;3.47;;